AirNav   Pilot Hours Calculator
 
 1156 users online  

MO23 Phillips Field Airport
California, Missouri, USA

GOING TO CALIFORNIA?


FAA INFORMATION EFFECTIVE 03 NOVEMBER 2022

Location

FAA Identifier: MO23
Lat/Long: 38-38-27.3450N 092-31-44.7600W
38-38.455750N 092-31.746000W
38.6409292,-92.5291000
(estimated)
Elevation: 805 ft. / 245 m (estimated)
Variation: 04E (1985)
From city: 2 miles ENE of CALIFORNIA, MO
Time zone: UTC -6 (UTC -5 during Daylight Saving Time)
Zip code: 65018

Airport Operations

Airport use: Private use. Permission required prior to landing
Activation date: 09/1966
Control tower: no
ARTCC: KANSAS CITY CENTER
FSS: COLUMBIA FLIGHT SERVICE STATION
Attendance: UNATNDD
Wind indicator: yes
Segmented circle: no

Airport Communications

WX ASOS at JEF (18 nm E): 133.625 (573-635-9266)
WX ASOS at COU (18 nm NE): 128.45 (573-499-1400)
WX AWOS-3PT at VER (20 nm N): 119.625 (660-882-5454)

Nearby radio navigation aids

VOR radial/distance  VOR name  Freq  Var
COUr235/17.8COLUMBIA VOR/DME110.2000E
HLVr207/34.0HALLSVILLE VORTAC114.2006E
SHYr005/36.2SUNSHINE VOR/DME108.4000E

Airport Services

Airframe service: NONE
Powerplant service: NONE

Runway Information

Runway 18/36

Dimensions: 2400 x 50 ft. / 732 x 15 m
Surface: turf
RUNWAY 18  RUNWAY 36
Latitude: 38-38.651167N38-38.260333N
Longitude: 092-31.708833W092-31.783167W
Elevation: 766.0 ft.741.0 ft.
Traffic pattern: leftleft

Airport Ownership and Management from official FAA records

Ownership: Privately-owned
Owner: CALMO FLYING CLUB
305 SOUTH OWEN
CALIFORNIA, MO 65018
Phone 573-291-7146
C/O DALE CARSON
Manager: PHILIP BOS
135 LAKE PARKS ST
HOLTS SUMMIT, MO 65043
Phone 660-441-4426

Airport Operational Statistics

Aircraft based on the field: 6
Single engine airplanes: 6
    
Aircraft operations: 30/year
67% local general aviation
33% transient general aviation

Additional Remarks

FOR CD CTC MIZZOU APCH AT 417-868-5620/5619.

Instrument Procedures

There are no published instrument procedures at MO23.

Some nearby airports with instrument procedures:

H79 - Eldon Model Airpark (17 nm S)
KJEF - Jefferson City Memorial Airport (18 nm E)
KCOU - Columbia Regional Airport (18 nm NE)
KVER - Jesse Viertel Memorial Airport (20 nm N)
KFTT - Elton Hensley Memorial Airport (27 nm NE)
 
Loc | Ops | Rwys | IFR | FBO | Links
Com | Nav | Svcs | Stats | Notes
Area around MO23 (Phillips Field Airport)
 
Road maps at: MapQuest Bing Google
 
Aerial photo
No photo
 
Sectional chart

 
Airport distance calculator
Flying to Phillips Field Airport? Find the distance to fly.

From to MO23

Sunrise and sunset
Times for 29-Nov-2022
 Local
(UTC-6)
 Zulu
(UTC)
Morning civil twilight06:3912:39
Sunrise07:0813:08
Sunset16:4922:49
Evening civil twilight17:1823:18

Current date and time
Zulu (UTC)  29-Nov-2022 23:41:47
Local (UTC-6)  29-Nov-2022 17:41:47
 
METAR
KJEF 
18nm E 
292253Z 31020G31KT 10SM CLR 11/04 A2965 RMK AO2 PK WND 32034/2232 PRESRR SLP030 T01060039 $
KCOU 
18nm NE 
292254Z 29019G30KT 10SM FEW050 08/03 A2965 RMK AO2 PK WND 30034/2225 PRESRR SLP041 T00830028
KVER 
20nm N 
292315Z AUTO 30014G23KT 10SM OVC016 04/01 A2974 RMK AO2 T00410014
KDMO 
30nm W 
292253Z AUTO 31017G30KT 10SM OVC015 03/M01 A2975 RMK AO2 PK WND 30033/2225 SLP079 T00281006
KAIZ 
32nm S 
292256Z AUTO 28015G22KT 10SM CLR 13/05 RMK AO2 SLPNO T01280050 $
TAF
KJEF 
18nm E 
291816Z 2918/3018 17014G29KT P6SM BKN050 FM292000 22016G29KT P6SM BKN045 FM292300 28015G29KT P6SM BKN025 FM300100 30015G25KT P6SM SCT025
KCOU 
18nm NE 
292123Z 2921/3018 27016G29KT P6SM BKN045 FM292300 28015G29KT P6SM BKN025 FM300100 30016G26KT P6SM SCT025
NOTAMs
Click for the latest NOTAMs
NOTAMs are issued by the DoD/FAA and will open in a separate window not controlled by AirNav.

 

 
 

Would you like to see your business listed on this page?

 If your business provides an interesting product or service to pilots, flight crews, aircraft, or users of the Phillips Field Airport, you should consider listing it here.  To start the listing process, click on the button below
 
Add a business
 

Other Pages about Phillips Field Airport

Update a link
 
Copyright © AirNav, LLC. All rights reserved. Privacy Policy  Contact